sensor_id;sensor_type;location;lat;lon;timestamp;temperature;humidity
39695;DHT22;25367;-35.352;149.036;2023-02-14T00:01:53;25.00;51.90
39695;DHT22;25367;-35.352;149.036;2023-02-14T00:04:23;25.00;52.40
39695;DHT22;25367;-35.352;149.036;2023-02-14T00:06:55;25.00;52.70
39695;DHT22;25367;-35.352;149.036;2023-02-14T00:09:25;25.00;52.90
39695;DHT22;25367;-35.352;149.036;2023-02-14T00:11:54;25.00;53.20
39695;DHT22;25367;-35.352;149.036;2023-02-14T00:14:24;25.00;53.30
39695;DHT22;25367;-35.352;149.036;2023-02-14T00:16:54;25.00;53.40
39695;DHT22;25367;-35.352;149.036;2023-02-14T00:19:24;25.00;53.50
39695;DHT22;25367;-35.352;149.036;2023-02-14T00:21:56;25.00;53.60
39695;DHT22;25367;-35.352;149.036;2023-02-14T00:24:26;25.10;53.60
39695;DHT22;25367;-35.352;149.036;2023-02-14T00:26:56;25.10;53.70
39695;DHT22;25367;-35.352;149.036;2023-02-14T00:29:28;25.10;53.80
39695;DHT22;25367;-35.352;149.036;2023-02-14T00:31:58;25.10;53.90
39695;DHT22;25367;-35.352;149.036;2023-02-14T00:34:27;25.10;54.10
39695;DHT22;25367;-35.352;149.036;2023-02-14T00:37:00;25.10;54.10
39695;DHT22;25367;-35.352;149.036;2023-02-14T00:39:29;25.10;54.00
39695;DHT22;25367;-35.352;149.036;2023-02-14T00:41:58;25.10;54.00
39695;DHT22;25367;-35.352;149.036;2023-02-14T00:44:28;25.10;54.10
39695;DHT22;25367;-35.352;149.036;2023-02-14T00:46:57;25.10;54.10
39695;DHT22;25367;-35.352;149.036;2023-02-14T00:49:26;25.20;54.20
39695;DHT22;25367;-35.352;149.036;2023-02-14T00:51:59;25.20;54.20
39695;DHT22;25367;-35.352;149.036;2023-02-14T00:54:29;25.20;54.20
39695;DHT22;25367;-35.352;149.036;2023-02-14T00:57:00;25.20;54.10
39695;DHT22;25367;-35.352;149.036;2023-02-14T00:59:30;25.20;54.10
39695;DHT22;25367;-35.352;149.036;2023-02-14T01:02:00;25.30;54.00
39695;DHT22;25367;-35.352;149.036;2023-02-14T01:04:31;25.30;54.10
39695;DHT22;25367;-35.352;149.036;2023-02-14T01:07:02;25.30;54.00
39695;DHT22;25367;-35.352;149.036;2023-02-14T01:09:32;25.30;53.90
39695;DHT22;25367;-35.352;149.036;2023-02-14T01:12:04;25.30;53.80
39695;DHT22;25367;-35.352;149.036;2023-02-14T01:14:33;25.40;53.80
39695;DHT22;25367;-35.352;149.036;2023-02-14T01:17:03;25.40;53.80
39695;DHT22;25367;-35.352;149.036;2023-02-14T01:19:32;25.40;53.70
39695;DHT22;25367;-35.352;149.036;2023-02-14T01:22:04;25.40;53.60
39695;DHT22;25367;-35.352;149.036;2023-02-14T01:24:33;25.40;53.60
39695;DHT22;25367;-35.352;149.036;2023-02-14T01:27:03;25.40;53.60
39695;DHT22;25367;-35.352;149.036;2023-02-14T01:29:34;25.40;53.60
39695;DHT22;25367;-35.352;149.036;2023-02-14T01:32:04;25.40;53.60
39695;DHT22;25367;-35.352;149.036;2023-02-14T01:34:34;25.40;53.60
39695;DHT22;25367;-35.352;149.036;2023-02-14T01:37:05;25.50;53.70
39695;DHT22;25367;-35.352;149.036;2023-02-14T01:39:34;25.50;53.70
39695;DHT22;25367;-35.352;149.036;2023-02-14T01:42:04;25.50;53.70
39695;DHT22;25367;-35.352;149.036;2023-02-14T01:44:56;25.50;53.70
39695;DHT22;25367;-35.352;149.036;2023-02-14T01:47:27;25.60;53.40
39695;DHT22;25367;-35.352;149.036;2023-02-14T01:50:02;25.60;53.80
39695;DHT22;25367;-35.352;149.036;2023-02-14T01:52:36;25.60;53.60
39695;DHT22;25367;-35.352;149.036;2023-02-14T01:55:07;25.60;53.60
39695;DHT22;25367;-35.352;149.036;2023-02-14T01:57:42;25.70;53.70
39695;DHT22;25367;-35.352;149.036;2023-02-14T02:00:13;25.70;53.50
39695;DHT22;25367;-35.352;149.036;2023-02-14T02:02:42;25.70;53.50
39695;DHT22;25367;-35.352;149.036;2023-02-14T02:05:12;25.70;53.40
39695;DHT22;25367;-35.352;149.036;2023-02-14T02:07:45;25.80;53.50
39695;DHT22;25367;-35.352;149.036;2023-02-14T02:10:15;25.80;53.50
39695;DHT22;25367;-35.352;149.036;2023-02-14T02:12:44;25.70;53.40
39695;DHT22;25367;-35.352;149.036;2023-02-14T02:15:16;25.80;53.40
39695;DHT22;25367;-35.352;149.036;2023-02-14T02:17:51;25.80;53.40
39695;DHT22;25367;-35.352;149.036;2023-02-14T02:20:46;25.80;53.60
39695;DHT22;25367;-35.352;149.036;2023-02-14T02:30:38;25.80;53.10
39695;DHT22;25367;-35.352;149.036;2023-02-14T02:33:51;25.80;53.30
39695;DHT22;25367;-35.352;149.036;2023-02-14T02:39:43;25.90;53.30
39695;DHT22;25367;-35.352;149.036;2023-02-14T02:42:22;25.90;53.40
39695;DHT22;25367;-35.352;149.036;2023-02-14T02:44:57;25.90;53.30
39695;DHT22;25367;-35.352;149.036;2023-02-14T02:47:35;25.90;53.20
39695;DHT22;25367;-35.352;149.036;2023-02-14T02:50:11;26.00;53.20
39695;DHT22;25367;-35.352;149.036;2023-02-14T02:52:55;25.90;53.00
39695;DHT22;25367;-35.352;149.036;2023-02-14T02:55:42;26.00;53.00
39695;DHT22;25367;-35.352;149.036;2023-02-14T02:58:12;26.00;53.00
39695;DHT22;25367;-35.352;149.036;2023-02-14T03:00:42;26.00;52.90
39695;DHT22;25367;-35.352;149.036;2023-02-14T03:03:12;26.00;52.80
39695;DHT22;25367;-35.352;149.036;2023-02-14T03:05:43;26.00;52.70
39695;DHT22;25367;-35.352;149.036;2023-02-14T03:08:14;26.00;52.60
39695;DHT22;25367;-35.352;149.036;2023-02-14T03:10:45;26.00;52.60
39695;DHT22;25367;-35.352;149.036;2023-02-14T03:13:29;26.00;52.50
39695;DHT22;25367;-35.352;149.036;2023-02-14T03:16:31;26.10;52.60
39695;DHT22;25367;-35.352;149.036;2023-02-14T03:22:02;26.10;52.60
39695;DHT22;25367;-35.352;149.036;2023-02-14T03:24:42;26.00;52.50
39695;DHT22;25367;-35.352;149.036;2023-02-14T03:27:19;26.00;52.50
39695;DHT22;25367;-35.352;149.036;2023-02-14T03:29:55;26.10;52.50
39695;DHT22;25367;-35.352;149.036;2023-02-14T03:32:32;26.10;52.40
39695;DHT22;25367;-35.352;149.036;2023-02-14T03:35:10;26.00;52.30
39695;DHT22;25367;-35.352;149.036;2023-02-14T03:37:47;26.10;52.40
39695;DHT22;25367;-35.352;149.036;2023-02-14T03:40:23;26.00;52.30
39695;DHT22;25367;-35.352;149.036;2023-02-14T03:42:56;26.10;52.30
39695;DHT22;25367;-35.352;149.036;2023-02-14T03:45:29;26.10;52.30
39695;DHT22;25367;-35.352;149.036;2023-02-14T03:48:04;26.00;52.30
39695;DHT22;25367;-35.352;149.036;2023-02-14T03:50:37;26.10;52.30
39695;DHT22;25367;-35.352;149.036;2023-02-14T03:53:10;26.10;52.40
39695;DHT22;25367;-35.352;149.036;2023-02-14T03:55:48;26.10;52.40
39695;DHT22;25367;-35.352;149.036;2023-02-14T03:58:22;26.10;52.40
39695;DHT22;25367;-35.352;149.036;2023-02-14T04:00:58;26.10;52.50
39695;DHT22;25367;-35.352;149.036;2023-02-14T04:03:32;26.10;52.60
39695;DHT22;25367;-35.352;149.036;2023-02-14T04:06:04;26.10;52.60
39695;DHT22;25367;-35.352;149.036;2023-02-14T04:08:33;26.10;52.50
39695;DHT22;25367;-35.352;149.036;2023-02-14T04:11:07;26.10;52.50
39695;DHT22;25367;-35.352;149.036;2023-02-14T04:13:37;26.20;52.60
39695;DHT22;25367;-35.352;149.036;2023-02-14T04:16:07;26.20;52.60
39695;DHT22;25367;-35.352;149.036;2023-02-14T04:18:36;26.20;52.50
39695;DHT22;25367;-35.352;149.036;2023-02-14T04:21:06;26.20;52.50
39695;DHT22;25367;-35.352;149.036;2023-02-14T04:23:35;26.30;52.60
39695;DHT22;25367;-35.352;149.036;2023-02-14T04:26:08;26.30;52.50
39695;DHT22;25367;-35.352;149.036;2023-02-14T04:28:36;26.30;52.50
39695;DHT22;25367;-35.352;149.036;2023-02-14T04:31:06;26.20;52.50
39695;DHT22;25367;-35.352;149.036;2023-02-14T04:36:07;26.30;52.70
39695;DHT22;25367;-35.352;149.036;2023-02-14T04:38:36;26.30;52.60
39695;DHT22;25367;-35.352;149.036;2023-02-14T04:41:09;26.30;52.50
39695;DHT22;25367;-35.352;149.036;2023-02-14T04:43:38;26.40;52.50
39695;DHT22;25367;-35.352;149.036;2023-02-14T04:46:07;26.40;52.40
39695;DHT22;25367;-35.352;149.036;2023-02-14T04:48:37;26.40;52.40
39695;DHT22;25367;-35.352;149.036;2023-02-14T04:51:06;26.40;52.40
39695;DHT22;25367;-35.352;149.036;2023-02-14T04:53:36;26.40;52.40
39695;DHT22;25367;-35.352;149.036;2023-02-14T04:56:08;26.40;52.40
39695;DHT22;25367;-35.352;149.036;2023-02-14T04:58:37;26.40;52.50
39695;DHT22;25367;-35.352;149.036;2023-02-14T05:01:06;26.50;52.50
39695;DHT22;25367;-35.352;149.036;2023-02-14T05:03:36;26.50;52.40
39695;DHT22;25367;-35.352;149.036;2023-02-14T05:06:05;26.50;52.40
39695;DHT22;25367;-35.352;149.036;2023-02-14T05:08:35;26.50;52.40
39695;DHT22;25367;-35.352;149.036;2023-02-14T05:11:06;26.50;52.30
39695;DHT22;25367;-35.352;149.036;2023-02-14T05:13:36;26.50;52.30
39695;DHT22;25367;-35.352;149.036;2023-02-14T05:16:05;26.50;52.50
39695;DHT22;25367;-35.352;149.036;2023-02-14T05:18:35;26.50;52.30
39695;DHT22;25367;-35.352;149.036;2023-02-14T05:21:05;26.60;52.40
39695;DHT22;25367;-35.352;149.036;2023-02-14T05:23:34;26.70;52.50
39695;DHT22;25367;-35.352;149.036;2023-02-14T05:26:04;26.60;52.40
39695;DHT22;25367;-35.352;149.036;2023-02-14T05:28:36;26.70;52.50
39695;DHT22;25367;-35.352;149.036;2023-02-14T05:31:05;26.70;52.50
39695;DHT22;25367;-35.352;149.036;2023-02-14T05:33:35;26.70;52.50
39695;DHT22;25367;-35.352;149.036;2023-02-14T05:36:05;26.70;52.40
39695;DHT22;25367;-35.352;149.036;2023-02-14T05:38:35;26.70;52.40
39695;DHT22;25367;-35.352;149.036;2023-02-14T05:41:04;26.70;52.40
39695;DHT22;25367;-35.352;149.036;2023-02-14T05:43:36;26.80;52.40
39695;DHT22;25367;-35.352;149.036;2023-02-14T05:46:06;26.80;52.30
39695;DHT22;25367;-35.352;149.036;2023-02-14T05:48:35;26.90;52.40
39695;DHT22;25367;-35.352;149.036;2023-02-14T05:51:06;26.80;52.30
39695;DHT22;25367;-35.352;149.036;2023-02-14T05:53:36;26.90;52.40
39695;DHT22;25367;-35.352;149.036;2023-02-14T05:56:06;26.90;52.40
39695;DHT22;25367;-35.352;149.036;2023-02-14T05:58:37;26.90;52.30
39695;DHT22;25367;-35.352;149.036;2023-02-14T06:01:06;26.90;52.30
39695;DHT22;25367;-35.352;149.036;2023-02-14T06:03:36;26.90;52.30
39695;DHT22;25367;-35.352;149.036;2023-02-14T06:06:06;27.00;52.40
39695;DHT22;25367;-35.352;149.036;2023-02-14T06:08:35;27.00;52.40
39695;DHT22;25367;-35.352;149.036;2023-02-14T06:11:05;27.00;52.30
39695;DHT22;25367;-35.352;149.036;2023-02-14T06:13:36;27.00;52.30
39695;DHT22;25367;-35.352;149.036;2023-02-14T06:16:06;27.00;52.40
39695;DHT22;25367;-35.352;149.036;2023-02-14T06:18:36;27.00;52.30
39695;DHT22;25367;-35.352;149.036;2023-02-14T06:21:06;27.10;52.20
39695;DHT22;25367;-35.352;149.036;2023-02-14T06:23:35;27.00;52.10
39695;DHT22;25367;-35.352;149.036;2023-02-14T06:26:04;27.10;52.20
39695;DHT22;25367;-35.352;149.036;2023-02-14T06:28:34;27.10;52.10
39695;DHT22;25367;-35.352;149.036;2023-02-14T06:31:05;27.10;52.00
39695;DHT22;25367;-35.352;149.036;2023-02-14T06:33:35;27.20;52.10
39695;DHT22;25367;-35.352;149.036;2023-02-14T06:36:05;27.20;52.10
39695;DHT22;25367;-35.352;149.036;2023-02-14T06:38:34;27.20;52.10
39695;DHT22;25367;-35.352;149.036;2023-02-14T06:41:04;27.20;52.00
39695;DHT22;25367;-35.352;149.036;2023-02-14T06:43:34;27.20;52.00
39695;DHT22;25367;-35.352;149.036;2023-02-14T06:46:06;27.20;52.00
39695;DHT22;25367;-35.352;149.036;2023-02-14T06:48:36;27.20;52.00
39695;DHT22;25367;-35.352;149.036;2023-02-14T06:51:06;27.30;52.10
39695;DHT22;25367;-35.352;149.036;2023-02-14T06:53:35;27.20;51.90
39695;DHT22;25367;-35.352;149.036;2023-02-14T06:56:05;27.20;52.00
39695;DHT22;25367;-35.352;149.036;2023-02-14T06:58:35;27.30;52.00
39695;DHT22;25367;-35.352;149.036;2023-02-14T07:01:06;27.30;52.00
39695;DHT22;25367;-35.352;149.036;2023-02-14T07:03:35;27.30;52.40
39695;DHT22;25367;-35.352;149.036;2023-02-14T07:06:05;27.30;52.10
39695;DHT22;25367;-35.352;149.036;2023-02-14T07:08:34;27.30;52.10
39695;DHT22;25367;-35.352;149.036;2023-02-14T07:11:04;27.30;52.00
39695;DHT22;25367;-35.352;149.036;2023-02-14T07:13:33;27.30;51.90
39695;DHT22;25367;-35.352;149.036;2023-02-14T07:16:05;27.40;52.00
39695;DHT22;25367;-35.352;149.036;2023-02-14T07:18:34;27.40;52.00
39695;DHT22;25367;-35.352;149.036;2023-02-14T07:21:04;27.40;51.90
39695;DHT22;25367;-35.352;149.036;2023-02-14T07:23:33;27.40;51.90
39695;DHT22;25367;-35.352;149.036;2023-02-14T07:26:03;27.40;51.80
39695;DHT22;25367;-35.352;149.036;2023-02-14T07:28:32;27.40;51.80
39695;DHT22;25367;-35.352;149.036;2023-02-14T07:31:02;27.40;51.80
39695;DHT22;25367;-35.352;149.036;2023-02-14T07:33:34;27.30;51.80
39695;DHT22;25367;-35.352;149.036;2023-02-14T07:36:05;27.30;51.70
39695;DHT22;25367;-35.352;149.036;2023-02-14T07:38:35;27.40;51.80
39695;DHT22;25367;-35.352;149.036;2023-02-14T07:41:07;27.40;51.80
39695;DHT22;25367;-35.352;149.036;2023-02-14T07:43:37;27.40;51.80
39695;DHT22;25367;-35.352;149.036;2023-02-14T07:46:07;27.30;51.80
39695;DHT22;25367;-35.352;149.036;2023-02-14T07:48:39;27.40;51.90
39695;DHT22;25367;-35.352;149.036;2023-02-14T07:51:09;27.30;51.80
39695;DHT22;25367;-35.352;149.036;2023-02-14T07:53:39;27.40;51.90
39695;DHT22;25367;-35.352;149.036;2023-02-14T07:56:08;27.40;51.90
39695;DHT22;25367;-35.352;149.036;2023-02-14T07:58:38;27.40;51.80
39695;DHT22;25367;-35.352;149.036;2023-02-14T08:01:07;27.40;51.80
39695;DHT22;25367;-35.352;149.036;2023-02-14T08:03:39;27.40;51.80
39695;DHT22;25367;-35.352;149.036;2023-02-14T08:06:09;27.40;51.80
39695;DHT22;25367;-35.352;149.036;2023-02-14T08:08:38;27.40;51.90
39695;DHT22;25367;-35.352;149.036;2023-02-14T08:11:07;27.40;51.90
39695;DHT22;25367;-35.352;149.036;2023-02-14T08:13:37;27.40;51.90
39695;DHT22;25367;-35.352;149.036;2023-02-14T08:16:07;27.30;51.70
39695;DHT22;25367;-35.352;149.036;2023-02-14T08:18:40;27.40;51.70
39695;DHT22;25367;-35.352;149.036;2023-02-14T08:21:10;27.40;51.70
39695;DHT22;25367;-35.352;149.036;2023-02-14T08:23:40;27.40;51.60
39695;DHT22;25367;-35.352;149.036;2023-02-14T08:26:10;27.30;51.40
39695;DHT22;25367;-35.352;149.036;2023-02-14T08:28:39;27.40;51.50
39695;DHT22;25367;-35.352;149.036;2023-02-14T08:31:09;27.30;51.40
39695;DHT22;25367;-35.352;149.036;2023-02-14T08:33:40;27.30;51.40
39695;DHT22;25367;-35.352;149.036;2023-02-14T08:36:10;27.40;51.50
39695;DHT22;25367;-35.352;149.036;2023-02-14T08:38:39;27.30;51.40
39695;DHT22;25367;-35.352;149.036;2023-02-14T08:41:08;27.30;51.40
39695;DHT22;25367;-35.352;149.036;2023-02-14T08:43:38;27.20;51.30
39695;DHT22;25367;-35.352;149.036;2023-02-14T08:46:07;27.30;51.40
39695;DHT22;25367;-35.352;149.036;2023-02-14T08:48:39;27.30;51.50
39695;DHT22;25367;-35.352;149.036;2023-02-14T08:51:09;27.30;51.50
39695;DHT22;25367;-35.352;149.036;2023-02-14T08:53:39;27.30;51.50
39695;DHT22;25367;-35.352;149.036;2023-02-14T08:56:10;27.20;51.50
39695;DHT22;25367;-35.352;149.036;2023-02-14T08:58:39;27.20;51.50
39695;DHT22;25367;-35.352;149.036;2023-02-14T09:01:09;27.20;51.50
39695;DHT22;25367;-35.352;149.036;2023-02-14T09:03:41;27.20;51.50
39695;DHT22;25367;-35.352;149.036;2023-02-14T09:06:12;27.20;51.50
39695;DHT22;25367;-35.352;149.036;2023-02-14T09:08:41;27.30;51.50
39695;DHT22;25367;-35.352;149.036;2023-02-14T09:11:12;27.20;51.50
39695;DHT22;25367;-35.352;149.036;2023-02-14T09:13:42;27.20;51.50
39695;DHT22;25367;-35.352;149.036;2023-02-14T09:16:12;27.20;51.50
39695;DHT22;25367;-35.352;149.036;2023-02-14T09:18:44;27.20;51.50
39695;DHT22;25367;-35.352;149.036;2023-02-14T09:21:16;27.20;51.50
39695;DHT22;25367;-35.352;149.036;2023-02-14T09:23:46;27.20;51.50
39695;DHT22;25367;-35.352;149.036;2023-02-14T09:26:16;27.20;51.50
39695;DHT22;25367;-35.352;149.036;2023-02-14T09:28:45;27.20;51.40
39695;DHT22;25367;-35.352;149.036;2023-02-14T09:31:16;27.10;51.30
39695;DHT22;25367;-35.352;149.036;2023-02-14T09:33:50;27.10;51.30
39695;DHT22;25367;-35.352;149.036;2023-02-14T09:36:20;27.10;51.30
39695;DHT22;25367;-35.352;149.036;2023-02-14T09:38:49;27.10;51.30
39695;DHT22;25367;-35.352;149.036;2023-02-14T09:41:41;27.10;51.30
39695;DHT22;25367;-35.352;149.036;2023-02-14T09:44:22;27.10;51.30
39695;DHT22;25367;-35.352;149.036;2023-02-14T09:46:55;27.00;51.30
39695;DHT22;25367;-35.352;149.036;2023-02-14T09:49:33;27.00;51.90
39695;DHT22;25367;-35.352;149.036;2023-02-14T09:52:08;27.00;51.30
39695;DHT22;25367;-35.352;149.036;2023-02-14T09:54:40;27.00;51.20
39695;DHT22;25367;-35.352;149.036;2023-02-14T09:57:16;27.00;51.20
39695;DHT22;25367;-35.352;149.036;2023-02-14T09:59:51;27.00;51.20
39695;DHT22;25367;-35.352;149.036;2023-02-14T10:02:39;27.00;51.10
39695;DHT22;25367;-35.352;149.036;2023-02-14T10:05:17;26.90;51.10
39695;DHT22;25367;-35.352;149.036;2023-02-14T10:08:03;26.90;51.30
39695;DHT22;25367;-35.352;149.036;2023-02-14T10:10:38;26.80;51.20
39695;DHT22;25367;-35.352;149.036;2023-02-14T10:13:15;26.80;51.20
39695;DHT22;25367;-35.352;149.036;2023-02-14T10:15:47;26.80;51.10
39695;DHT22;25367;-35.352;149.036;2023-02-14T10:18:19;26.80;51.10
39695;DHT22;25367;-35.352;149.036;2023-02-14T10:20:54;26.80;51.10
39695;DHT22;25367;-35.352;149.036;2023-02-14T10:23:31;26.80;51.20
39695;DHT22;25367;-35.352;149.036;2023-02-14T10:26:04;26.70;51.10
39695;DHT22;25367;-35.352;149.036;2023-02-14T10:28:36;26.70;51.00
39695;DHT22;25367;-35.352;149.036;2023-02-14T10:31:18;26.70;51.10
39695;DHT22;25367;-35.352;149.036;2023-02-14T10:33:52;26.70;51.10
39695;DHT22;25367;-35.352;149.036;2023-02-14T10:36:41;26.70;51.10
39695;DHT22;25367;-35.352;149.036;2023-02-14T10:39:27;26.70;51.10
39695;DHT22;25367;-35.352;149.036;2023-02-14T10:42:02;26.70;51.10
39695;DHT22;25367;-35.352;149.036;2023-02-14T10:44:43;26.70;51.10
39695;DHT22;25367;-35.352;149.036;2023-02-14T10:47:24;26.60;51.00
39695;DHT22;25367;-35.352;149.036;2023-02-14T10:50:00;26.70;51.00
39695;DHT22;25367;-35.352;149.036;2023-02-14T10:52:37;26.60;51.00
39695;DHT22;25367;-35.352;149.036;2023-02-14T10:55:14;26.70;51.10
39695;DHT22;25367;-35.352;149.036;2023-02-14T10:57:49;26.60;51.00
39695;DHT22;25367;-35.352;149.036;2023-02-14T11:00:19;26.60;50.90
39695;DHT22;25367;-35.352;149.036;2023-02-14T11:02:52;26.50;51.10
39695;DHT22;25367;-35.352;149.036;2023-02-14T11:05:26;26.50;51.10
39695;DHT22;25367;-35.352;149.036;2023-02-14T11:07:58;26.50;51.00
39695;DHT22;25367;-35.352;149.036;2023-02-14T11:10:31;26.50;51.00
39695;DHT22;25367;-35.352;149.036;2023-02-14T11:13:02;26.50;50.90
39695;DHT22;25367;-35.352;149.036;2023-02-14T11:15:32;26.50;50.90
39695;DHT22;25367;-35.352;149.036;2023-02-14T11:18:20;26.50;50.90
39695;DHT22;25367;-35.352;149.036;2023-02-14T11:21:00;26.50;50.90
39695;DHT22;25367;-35.352;149.036;2023-02-14T11:23:35;26.50;50.90
39695;DHT22;25367;-35.352;149.036;2023-02-14T11:26:15;26.50;51.10
39695;DHT22;25367;-35.352;149.036;2023-02-14T11:28:53;26.50;50.90
39695;DHT22;25367;-35.352;149.036;2023-02-14T11:31:28;26.50;51.00
39695;DHT22;25367;-35.352;149.036;2023-02-14T11:33:59;26.50;51.00
39695;DHT22;25367;-35.352;149.036;2023-02-14T11:36:30;26.40;51.00
39695;DHT22;25367;-35.352;149.036;2023-02-14T11:39:25;26.40;51.00
39695;DHT22;25367;-35.352;149.036;2023-02-14T11:41:57;26.40;51.10
39695;DHT22;25367;-35.352;149.036;2023-02-14T11:44:28;26.30;51.10
39695;DHT22;25367;-35.352;149.036;2023-02-14T11:47:17;26.30;51.20
39695;DHT22;25367;-35.352;149.036;2023-02-14T11:49:55;26.30;51.10
39695;DHT22;25367;-35.352;149.036;2023-02-14T11:52:25;26.30;51.20
39695;DHT22;25367;-35.352;149.036;2023-02-14T11:54:58;26.20;51.20
39695;DHT22;25367;-35.352;149.036;2023-02-14T11:57:29;26.30;51.20
39695;DHT22;25367;-35.352;149.036;2023-02-14T12:00:02;26.20;51.20
39695;DHT22;25367;-35.352;149.036;2023-02-14T12:02:42;26.20;51.20
39695;DHT22;25367;-35.352;149.036;2023-02-14T12:05:17;26.20;51.30
39695;DHT22;25367;-35.352;149.036;2023-02-14T12:07:49;26.20;51.30
39695;DHT22;25367;-35.352;149.036;2023-02-14T12:10:25;26.10;51.30
39695;DHT22;25367;-35.352;149.036;2023-02-14T12:12:58;26.10;51.30
39695;DHT22;25367;-35.352;149.036;2023-02-14T12:15:37;26.10;51.30
39695;DHT22;25367;-35.352;149.036;2023-02-14T12:18:40;26.10;51.30
39695;DHT22;25367;-35.352;149.036;2023-02-14T12:21:39;26.10;51.20
39695;DHT22;25367;-35.352;149.036;2023-02-14T12:24:24;26.10;51.40
39695;DHT22;25367;-35.352;149.036;2023-02-14T12:27:05;26.00;51.40
39695;DHT22;25367;-35.352;149.036;2023-02-14T12:29:40;26.10;51.50
39695;DHT22;25367;-35.352;149.036;2023-02-14T12:32:19;26.00;51.50
39695;DHT22;25367;-35.352;149.036;2023-02-14T12:34:50;26.00;51.40
39695;DHT22;25367;-35.352;149.036;2023-02-14T12:37:32;26.00;51.50
39695;DHT22;25367;-35.352;149.036;2023-02-14T12:40:13;26.00;51.40
39695;DHT22;25367;-35.352;149.036;2023-02-14T12:43:05;26.00;51.50
39695;DHT22;25367;-35.352;149.036;2023-02-14T12:46:05;26.00;51.50
39695;DHT22;25367;-35.352;149.036;2023-02-14T12:48:49;25.90;51.40
39695;DHT22;25367;-35.352;149.036;2023-02-14T12:51:25;25.90;51.60
39695;DHT22;25367;-35.352;149.036;2023-02-14T12:57:03;25.90;51.50
39695;DHT22;25367;-35.352;149.036;2023-02-14T12:59:43;25.90;51.60
39695;DHT22;25367;-35.352;149.036;2023-02-14T13:02:39;25.90;51.60
39695;DHT22;25367;-35.352;149.036;2023-02-14T13:05:18;25.90;51.50
39695;DHT22;25367;-35.352;149.036;2023-02-14T13:08:04;25.80;51.70
39695;DHT22;25367;-35.352;149.036;2023-02-14T13:10:49;25.80;51.50
39695;DHT22;25367;-35.352;149.036;2023-02-14T13:13:28;25.80;51.60
39695;DHT22;25367;-35.352;149.036;2023-02-14T13:16:09;25.80;51.70
39695;DHT22;25367;-35.352;149.036;2023-02-14T13:18:48;25.80;51.60
39695;DHT22;25367;-35.352;149.036;2023-02-14T13:21:21;25.80;51.70
39695;DHT22;25367;-35.352;149.036;2023-02-14T13:23:55;25.80;51.80
39695;DHT22;25367;-35.352;149.036;2023-02-14T13:26:28;25.80;51.70
39695;DHT22;25367;-35.352;149.036;2023-02-14T13:29:02;25.80;51.70
39695;DHT22;25367;-35.352;149.036;2023-02-14T13:31:38;25.80;51.70
39695;DHT22;25367;-35.352;149.036;2023-02-14T13:34:17;25.80;51.70
39695;DHT22;25367;-35.352;149.036;2023-02-14T13:36:48;25.80;51.70
39695;DHT22;25367;-35.352;149.036;2023-02-14T13:39:23;25.70;51.70
39695;DHT22;25367;-35.352;149.036;2023-02-14T13:41:53;25.70;51.70
39695;DHT22;25367;-35.352;149.036;2023-02-14T13:44:43;25.60;51.60
39695;DHT22;25367;-35.352;149.036;2023-02-14T13:47:30;25.70;51.60
39695;DHT22;25367;-35.352;149.036;2023-02-14T13:50:00;25.70;51.70
39695;DHT22;25367;-35.352;149.036;2023-02-14T13:52:41;25.70;51.70
39695;DHT22;25367;-35.352;149.036;2023-02-14T13:55:17;25.70;51.70
39695;DHT22;25367;-35.352;149.036;2023-02-14T13:58:00;25.70;51.70
39695;DHT22;25367;-35.352;149.036;2023-02-14T14:00:41;25.70;51.70
39695;DHT22;25367;-35.352;149.036;2023-02-14T14:03:55;25.60;51.70
39695;DHT22;25367;-35.352;149.036;2023-02-14T14:06:25;25.60;51.60
39695;DHT22;25367;-35.352;149.036;2023-02-14T14:08:55;25.60;51.80
39695;DHT22;25367;-35.352;149.036;2023-02-14T14:11:57;25.60;51.80
39695;DHT22;25367;-35.352;149.036;2023-02-14T14:14:36;25.60;51.60
39695;DHT22;25367;-35.352;149.036;2023-02-14T14:17:24;25.60;51.80
39695;DHT22;25367;-35.352;149.036;2023-02-14T14:19:56;25.60;51.60
39695;DHT22;25367;-35.352;149.036;2023-02-14T14:22:26;25.50;51.80
39695;DHT22;25367;-35.352;149.036;2023-02-14T14:24:58;25.50;51.80
39695;DHT22;25367;-35.352;149.036;2023-02-14T14:27:31;25.50;51.80
39695;DHT22;25367;-35.352;149.036;2023-02-14T14:30:02;25.60;51.80
39695;DHT22;25367;-35.352;149.036;2023-02-14T14:32:32;25.50;51.80
39695;DHT22;25367;-35.352;149.036;2023-02-14T14:35:14;25.50;51.80
39695;DHT22;25367;-35.352;149.036;2023-02-14T14:37:47;25.50;51.80
39695;DHT22;25367;-35.352;149.036;2023-02-14T14:40:23;25.50;51.80
39695;DHT22;25367;-35.352;149.036;2023-02-14T14:42:54;25.50;51.80
39695;DHT22;25367;-35.352;149.036;2023-02-14T14:45:25;25.40;51.80
39695;DHT22;25367;-35.352;149.036;2023-02-14T14:47:56;25.40;51.80
39695;DHT22;25367;-35.352;149.036;2023-02-14T14:50:31;25.40;51.80
39695;DHT22;25367;-35.352;149.036;2023-02-14T14:53:03;25.40;51.80
39695;DHT22;25367;-35.352;149.036;2023-02-14T14:55:38;25.40;51.80
39695;DHT22;25367;-35.352;149.036;2023-02-14T14:58:32;25.40;51.80
39695;DHT22;25367;-35.352;149.036;2023-02-14T15:01:02;25.40;51.70
39695;DHT22;25367;-35.352;149.036;2023-02-14T15:03:33;25.40;51.80
39695;DHT22;25367;-35.352;149.036;2023-02-14T15:06:12;25.40;51.90
39695;DHT22;25367;-35.352;149.036;2023-02-14T15:08:44;25.40;51.80
39695;DHT22;25367;-35.352;149.036;2023-02-14T15:11:15;25.40;51.90
39695;DHT22;25367;-35.352;149.036;2023-02-14T15:13:48;25.40;51.90
39695;DHT22;25367;-35.352;149.036;2023-02-14T15:16:24;25.30;51.80
39695;DHT22;25367;-35.352;149.036;2023-02-14T15:18:56;25.40;51.90
39695;DHT22;25367;-35.352;149.036;2023-02-14T15:21:29;25.30;51.90
39695;DHT22;25367;-35.352;149.036;2023-02-14T15:24:00;25.30;51.70
39695;DHT22;25367;-35.352;149.036;2023-02-14T15:26:31;25.30;52.10
39695;DHT22;25367;-35.352;149.036;2023-02-14T15:29:04;25.30;52.00
39695;DHT22;25367;-35.352;149.036;2023-02-14T15:31:35;25.30;52.00
39695;DHT22;25367;-35.352;149.036;2023-02-14T15:34:06;25.30;52.00
39695;DHT22;25367;-35.352;149.036;2023-02-14T15:36:41;25.30;51.90
39695;DHT22;25367;-35.352;149.036;2023-02-14T15:39:13;25.30;51.90
39695;DHT22;25367;-35.352;149.036;2023-02-14T15:41:45;25.20;51.90
39695;DHT22;25367;-35.352;149.036;2023-02-14T15:44:22;25.30;52.00
39695;DHT22;25367;-35.352;149.036;2023-02-14T15:46:55;25.20;51.90